Terminal Aerodrome Forecast
Issued by NWS

Home | Current Version | Previous Version | Graphics & Text | Print | Product List | Glossary On
Versions: 1 2 3 4 5 6 7 8 9 10 11 12 13 14 15 16 17 18 19
618
FTUS43 KMPX 050232 AAA
TAFRNH
TAF AMD
KRNH 050232Z 0503/0524 00000KT 2SM BR SKC
      TEMPO 0503/0507 1/2SM FZFG VV004
     FM051300 16003KT P6SM BKN250
     FM051500 17006KT P6SM OVC090
     FM052200 18006KT 4SM -SN SCT020 OVC030=

USA.gov is the U.S. government's official web portal to all federal, state and local government web resources and services.